Time;durP1;ratioP1;P1;durP2;ratioP2;P2;SDS_P1;SDS_P2;PMS_P1;PMS_P2;Temp;Humidity;BMP_temperature;BMP_pressure;BME280_temperature;BME280_humidity;BME280_pressure;Samples;Min_cycle;Max_cycle;Signal;HPM_P1;HPM_P2
2021/12/29 00:01:46;;;;;;;33.30;10.40;;;;;;;-8.45;69.37;101037.75;6067451;23;20441;-78
2021/12/29 00:04:13;;;;;;;45.23;11.07;;;;;;;-8.42;68.68;101047.22;6090564;23;20108;-77
2021/12/29 00:06:38;;;;;;;34.37;11.37;;;;;;;-8.67;68.56;101053.56;6070340;23;20019;-77
2021/12/29 00:09:05;;;;;;;35.77;10.30;;;;;;;-8.79;68.59;101048.31;6071276;23;20102;-76
2021/12/29 00:11:31;;;;;;;32.27;10.13;;;;;;;-8.68;69.43;101041.69;6074142;23;20022;-78
2021/12/29 00:13:58;;;;;;;32.37;10.30;;;;;;;-8.54;69.54;101026.84;6107917;23;20042;-77
2021/12/29 00:16:24;;;;;;;32.47;11.37;;;;;;;-8.40;69.27;101021.34;6103263;23;20037;-77
2021/12/29 00:18:50;;;;;;;60.77;10.90;;;;;;;-8.39;68.42;101019.69;6068026;23;20030;-78
2021/12/29 00:21:16;;;;;;;26.20;8.80;;;;;;;-8.28;69.50;101041.75;6070818;23;20019;-77
2021/12/29 00:23:42;;;;;;;32.17;10.47;;;;;;;-8.24;69.29;101051.31;6071239;23;20046;-79
2021/12/29 00:26:11;;;;;;;47.73;10.47;;;;;;;-8.44;68.02;101046.19;6068515;23;20025;-76
2021/12/29 00:28:37;;;;;;;39.40;11.07;;;;;;;-8.65;68.55;101049.53;6092373;23;20022;-78
2021/12/29 00:31:03;;;;;;;35.00;10.47;;;;;;;-8.68;69.20;101031.59;6092798;23;20369;-78
2021/12/29 00:33:47;;;;;;;40.07;11.17;;;;;;;-8.64;69.04;101018.50;6088793;23;20015;-78
2021/12/29 00:36:31;;;;;;;33.63;10.00;;;;;;;-8.78;68.66;101019.81;6070136;23;20022;-77
2021/12/29 00:39:16;;;;;;;49.77;11.50;;;;;;;-9.01;68.41;101029.50;6091098;23;20122;-78
2021/12/29 00:42:02;;;;;;;31.27;9.73;;;;;;;-9.06;69.10;101028.19;6067930;23;20034;-78
2021/12/29 00:44:49;;;;;;;41.73;10.17;;;;;;;-9.00;68.91;101046.41;6098528;23;20460;-79
2021/12/29 00:47:15;;;;;;;35.67;10.47;;;;;;;-9.19;68.42;101044.78;6049104;23;20022;-76
2021/12/29 00:49:42;;;;;;;31.67;10.60;;;;;;;-9.20;69.71;101048.03;6107277;23;20014;-76
2021/12/29 00:52:09;;;;;;;29.37;9.67;;;;;;;-9.19;67.93;101049.81;6087336;23;20057;-78
2021/12/29 00:54:39;;;;;;;31.53;10.07;;;;;;;-9.30;69.07;101020.19;6097215;23;20026;-79
2021/12/29 00:57:05;;;;;;;32.93;10.30;;;;;;;-9.43;68.96;100998.03;6103381;23;20360;-78
2021/12/29 00:59:31;;;;;;;31.87;9.90;;;;;;;-8.96;69.61;101035.84;6097268;23;20014;-78
2021/12/29 01:01:56;;;;;;;32.07;10.10;;;;;;;-8.70;70.23;101042.28;6073167;23;20093;-77
2021/12/29 01:04:23;;;;;;;30.53;9.90;;;;;;;-8.61;69.86;101032.16;6073976;23;20022;-78
2021/12/29 01:06:50;;;;;;;25.30;10.10;;;;;;;-8.61;69.22;101038.06;6096981;23;20018;-78
2021/12/29 01:09:16;;;;;;;27.03;9.70;;;;;;;-8.80;68.85;101033.03;6049556;23;20093;-79
2021/12/29 01:11:42;;;;;;;29.00;10.23;;;;;;;-9.31;68.17;100980.59;6096824;23;20025;-77
2021/12/29 01:14:08;;;;;;;32.33;9.70;;;;;;;-9.26;68.99;101009.66;6098540;23;20321;-79
2021/12/29 01:16:36;;;;;;;33.33;10.50;;;;;;;-8.97;69.19;101044.16;6096434;23;20022;-77
2021/12/29 01:19:18;;;;;;;28.67;9.23;;;;;;;-9.24;69.17;100960.25;6097425;23;20014;-78
2021/12/29 01:21:49;;;;;;;25.80;9.83;;;;;;;-8.70;69.38;101015.44;6072676;23;20034;-78
2021/12/29 01:24:15;;;;;;;31.67;10.80;;;;;;;-8.51;69.21;101032.19;6098363;23;20468;-78
2021/12/29 01:26:43;;;;;;;31.93;9.30;;;;;;;-8.85;68.94;101002.34;6098409;23;20542;-77
2021/12/29 01:29:11;;;;;;;41.17;14.37;;;;;;;-8.57;69.51;101032.53;6097021;23;20073;-77
2021/12/29 01:31:39;;;;;;;24.13;9.90;;;;;;;-8.48;69.41;101028.25;6096830;23;20018;-77
2021/12/29 01:34:05;;;;;;;29.83;9.97;;;;;;;-8.41;69.12;101019.59;6096600;23;20049;-80
2021/12/29 01:36:36;;;;;;;31.43;10.30;;;;;;;-8.31;69.24;101031.38;6097187;23;20101;-78
2021/12/29 01:39:10;;;;;;;29.25;9.75;;;;;;;-8.44;68.92;101029.41;6072958;23;20453;-77
2021/12/29 01:41:36;;;;;;;34.23;10.63;;;;;;;-8.45;69.02;101027.63;6098827;23;20038;-79
2021/12/29 01:44:03;;;;;;;36.90;11.27;;;;;;;-8.55;68.61;101033.56;6097128;23;20027;-79
2021/12/29 01:46:29;;;;;;;33.87;10.50;;;;;;;-8.85;67.80;100989.72;6073777;23;20033;-78
2021/12/29 01:48:55;;;;;;;29.43;9.40;;;;;;;-8.76;68.42;101022.44;6075341;23;20034;-80
2021/12/29 01:51:22;;;;;;;25.33;8.40;;;;;;;-8.87;69.01;101013.94;6075104;23;20378;-79
2021/12/29 01:54:03;;;;;;;24.00;8.37;;;;;;;-8.63;69.18;101016.84;6073389;23;20019;-77
2021/12/29 01:56:31;;;;;;;31.90;9.23;;;;;;;-8.74;68.96;101022.59;6101613;23;20461;-77
2021/12/29 01:58:58;;;;;;;26.70;8.63;;;;;;;-8.65;69.32;101025.91;6116290;23;20010;-76
2021/12/29 02:01:24;;;;;;;35.87;9.43;;;;;;;-8.54;68.95;101026.84;6099070;23;20018;-78
2021/12/29 02:03:52;;;;;;;29.17;9.67;;;;;;;-8.94;68.53;100991.47;6071824;23;20109;-77
2021/12/29 02:06:18;;;;;;;33.43;10.07;;;;;;;-8.79;68.86;101028.13;6096214;23;20125;-77
2021/12/29 02:08:44;;;;;;;28.93;9.70;;;;;;;-8.96;68.42;101034.19;6072801;23;20038;-80
2021/12/29 02:11:10;;;;;;;28.27;9.83;;;;;;;-8.99;69.29;101006.16;6097816;23;20018;-78
2021/12/29 02:13:36;;;;;;;25.87;8.80;;;;;;;-8.81;68.84;101026.19;6098006;23;20029;-77
2021/12/29 02:16:02;;;;;;;31.47;9.50;;;;;;;-9.11;68.39;101016.06;6073209;23;20464;-78
2021/12/29 02:18:27;;;;;;;34.70;9.30;;;;;;;-9.38;68.15;101000.22;6101750;23;20065;-79
2021/12/29 02:20:54;;;;;;;24.43;8.73;;;;;;;-9.25;69.09;101029.94;6082488;23;20041;-78
2021/12/29 02:23:32;;;;;;;25.77;9.00;;;;;;;-9.39;68.57;101023.69;6093145;23;20045;-77
2021/12/29 02:25:59;;;;;;;26.63;8.17;;;;;;;-9.39;68.56;101025.31;6097282;23;20026;-78
2021/12/29 02:28:29;;;;;;;29.13;9.10;;;;;;;-9.37;69.32;101021.28;6118959;23;20029;-78
2021/12/29 02:30:55;;;;;;;27.90;9.13;;;;;;;-9.28;69.36;100999.44;6119815;23;20002;-77
2021/12/29 02:33:30;;;;;;;24.70;8.83;;;;;;;-8.99;68.85;101026.34;6108760;23;20018;-79
2021/12/29 02:35:58;;;;;;;27.60;8.57;;;;;;;-8.95;69.06;101030.94;6098551;23;20069;-80
2021/12/29 02:38:29;;;;;;;32.20;10.00;;;;;;;-9.03;67.81;101036.91;6097225;23;20207;-77
2021/12/29 02:40:59;;;;;;;33.47;10.50;;;;;;;-9.11;68.26;101038.75;6072699;23;20109;-76
2021/12/29 02:43:25;;;;;;;31.47;11.33;;;;;;;-9.21;69.00;101013.47;6072973;23;20046;-80
2021/12/29 02:46:00;;;;;;;25.37;8.40;;;;;;;-9.10;68.85;101012.78;6073725;23;20110;-79
2021/12/29 02:48:32;;;;;;;22.50;8.17;;;;;;;-8.94;69.17;101035.22;6102751;23;20106;-78
2021/12/29 02:50:59;;;;;;;28.83;8.13;;;;;;;-8.91;68.98;101018.59;6104326;23;20033;-79
2021/12/29 02:53:27;;;;;;;23.73;8.47;;;;;;;-8.87;68.81;101031.59;6073801;23;20049;-77
2021/12/29 02:55:53;;;;;;;21.13;9.13;;;;;;;-8.97;68.83;101029.03;6097846;23;20026;-80
2021/12/29 02:58:22;;;;;;;28.13;8.33;;;;;;;-8.99;68.84;101023.81;6072480;23;20034;-77
2021/12/29 03:00:49;;;;;;;32.40;9.20;;;;;;;-9.20;68.21;101026.97;6071737;23;20049;-78
2021/12/29 03:03:20;;;;;;;25.53;8.23;;;;;;;-9.25;68.75;101022.38;6096078;23;20045;-79
2021/12/29 03:05:48;;;;;;;33.97;11.33;;;;;;;-9.11;68.60;101036.22;6101773;23;20022;-77
2021/12/29 03:08:16;;;;;;;38.63;10.17;;;;;;;-9.28;68.08;101023.75;6120004;23;20070;-80
2021/12/29 03:10:42;;;;;;;38.03;11.27;;;;;;;-9.71;67.03;101019.09;6107160;23;20050;-78
2021/12/29 03:13:08;;;;;;;40.60;12.37;;;;;;;-10.05;67.48;101026.09;6096993;23;20368;-77
2021/12/29 03:15:35;;;;;;;41.03;11.50;;;;;;;-10.01;68.91;101024.72;6097987;23;20018;-79
2021/12/29 03:18:02;;;;;;;41.40;12.27;;;;;;;-9.76;69.56;100999.28;6097342;23;20038;-78
2021/12/29 03:20:30;;;;;;;38.73;12.07;;;;;;;-9.42;69.90;101015.84;6096668;23;20342;-78
2021/12/29 03:23:02;;;;;;;32.87;10.73;;;;;;;-9.46;69.23;101001.19;6098153;23;20018;-79
2021/12/29 03:26:42;;;;;;;40.92;11.05;;;;;;;-9.48;68.06;100996.72;6100043;23;20019;-78
2021/12/29 03:29:11;;;;;;;43.43;11.60;;;;;;;-9.74;68.98;100982.66;6070339;23;20061;-80
2021/12/29 03:31:39;;;;;;;35.00;10.63;;;;;;;-9.51;69.27;101017.50;6074953;23;20018;-77
2021/12/29 03:34:05;;;;;;;45.03;12.47;;;;;;;-9.35;69.52;101011.31;6098943;23;20018;-80
2021/12/29 03:36:31;;;;;;;40.70;12.07;;;;;;;-9.21;69.61;101003.38;6101061;23;20018;-77
2021/12/29 03:38:57;;;;;;;48.40;14.23;;;;;;;-8.96;69.57;101014.00;6105891;23;20436;-79
2021/12/29 03:41:24;;;;;;;40.63;11.90;;;;;;;-8.86;69.11;101013.19;6102313;23;20037;-77
2021/12/29 03:43:50;;;;;;;44.73;12.03;;;;;;;-9.12;68.22;100994.09;6088448;23;20033;-78
2021/12/29 03:46:16;;;;;;;42.73;12.20;;;;;;;-9.15;69.01;101010.59;6123168;23;20026;-79
2021/12/29 03:48:45;;;;;;;41.90;12.80;;;;;;;-9.02;69.35;101023.56;6122220;23;20022;-78
2021/12/29 03:51:11;;;;;;;45.77;13.13;;;;;;;-8.94;69.20;101019.22;6122983;23;20134;-80
2021/12/29 03:53:38;;;;;;;38.07;11.73;;;;;;;-8.89;69.21;101017.09;6121918;23;20007;-76
2021/12/29 03:56:04;;;;;;;38.17;12.90;;;;;;;-9.10;68.43;101010.25;6116396;23;20026;-78
2021/12/29 03:58:31;;;;;;;40.03;11.97;;;;;;;-9.22;68.94;100981.44;6099267;23;20022;-78
2021/12/29 04:00:59;;;;;;;45.17;12.70;;;;;;;-9.05;68.59;101009.78;6098557;23;20436;-77
2021/12/29 04:03:26;;;;;;;42.53;12.30;;;;;;;-9.45;68.97;100976.84;6099751;23;20033;-79
2021/12/29 04:05:58;;;;;;;37.73;12.93;;;;;;;-9.32;68.38;100993.97;6104107;23;20018;-78
2021/12/29 04:08:27;;;;;;;33.53;11.03;;;;;;;-9.03;69.24;101004.13;6103762;23;20029;-78
2021/12/29 04:10:53;;;;;;;41.93;11.20;;;;;;;-8.84;69.08;100996.56;6105106;23;20109;-78
2021/12/29 04:13:18;;;;;;;33.87;10.93;;;;;;;-8.66;69.13;100998.91;6077400;23;20050;-77
2021/12/29 04:15:44;;;;;;;35.67;10.63;;;;;;;-8.72;68.98;100970.63;6104532;23;20078;-76
2021/12/29 04:18:26;;;;;;;32.70;11.03;;;;;;;-8.64;68.78;100969.63;6092354;23;20032;-77
2021/12/29 04:21:01;;;;;;;30.73;11.40;;;;;;;-8.93;69.31;100914.97;6101662;23;20101;-79
2021/12/29 04:23:37;;;;;;;29.10;10.13;;;;;;;-8.56;68.42;100978.78;6074356;23;20014;-79
2021/12/29 04:26:05;;;;;;;37.63;11.43;;;;;;;-8.67;68.52;100992.09;6100823;23;20022;-76
2021/12/29 04:28:31;;;;;;;36.97;11.60;;;;;;;-8.61;68.94;100994.28;6101412;23;20014;-77
2021/12/29 04:31:07;;;;;;;31.57;12.13;;;;;;;-8.59;68.05;100993.66;6099933;23;20484;-81
2021/12/29 04:33:36;;;;;;;48.30;13.07;;;;;;;-8.76;67.57;100989.66;6074896;23;20399;-76
2021/12/29 04:36:02;;;;;;;43.37;12.20;;;;;;;-9.38;67.72;100927.09;6097897;23;20048;-77
2021/12/29 04:38:28;;;;;;;37.67;13.60;;;;;;;-9.18;69.04;100933.03;6097062;23;20040;-80
2021/12/29 04:40:55;;;;;;;37.87;13.90;;;;;;;-8.75;69.15;100978.81;6074138;23;20053;-78
2021/12/29 04:43:22;;;;;;;42.90;14.07;;;;;;;-8.61;69.38;100982.53;6098395;23;20308;-80
2021/12/29 04:45:49;;;;;;;37.60;11.83;;;;;;;-9.01;67.17;100976.53;6097717;23;20029;-75
2021/12/29 04:48:16;;;;;;;37.50;13.30;;;;;;;-9.47;66.68;100981.75;6098693;23;20019;-76
2021/12/29 04:50:53;;;;;;;36.00;12.17;;;;;;;-9.65;69.46;100947.34;6097038;23;20065;-76
2021/12/29 04:53:23;;;;;;;40.53;13.40;;;;;;;-9.46;69.01;100975.97;6098944;23;20018;-78
2021/12/29 04:55:50;;;;;;;44.33;14.13;;;;;;;-9.26;69.31;100985.31;6074075;23;20022;-77
2021/12/29 04:58:18;;;;;;;49.67;16.60;;;;;;;-9.13;69.43;100966.22;6098811;23;20048;-79
2021/12/29 05:00:45;;;;;;;37.70;12.73;;;;;;;-9.55;66.76;100995.28;6073939;23;20492;-78
2021/12/29 05:03:10;;;;;;;54.00;13.70;;;;;;;-10.32;66.97;100952.25;6072873;23;20014;-77
2021/12/29 05:11:06;;;;;;;67.40;12.67;;;;;;;-10.19;68.23;101007.16;6099329;23;20312;-81
2021/12/29 05:13:59;;;;;;;65.27;14.53;;;;;;;-11.10;69.56;100838.56;6098556;23;20364;-80
2021/12/29 05:16:28;;;;;;;66.67;15.10;;;;;;;-10.05;69.03;100998.38;6075115;23;20067;-79
2021/12/29 05:18:56;;;;;;;75.70;14.43;;;;;;;-10.27;68.21;100989.56;6096185;23;20018;-78
2021/12/29 05:21:23;;;;;;;96.97;16.87;;;;;;;-10.47;68.44;101006.22;6072622;23;20081;-79
2021/12/29 05:23:48;;;;;;;46.60;13.47;;;;;;;-10.37;69.70;100991.22;6107226;23;20018;-77
2021/12/29 05:26:14;;;;;;;57.30;14.97;;;;;;;-10.23;69.15;100999.16;6116284;23;20188;-76
2021/12/29 05:28:40;;;;;;;55.30;14.20;;;;;;;-10.42;68.80;100991.56;6101298;23;20085;-76
2021/12/29 05:31:06;;;;;;;49.63;14.33;;;;;;;-10.44;69.43;100981.34;6072267;23;20020;-77
2021/12/29 05:33:32;;;;;;;46.80;14.97;;;;;;;-10.24;70.36;100984.78;6098479;23;20014;-78
2021/12/29 05:35:58;;;;;;;46.73;14.03;;;;;;;-10.03;69.62;100993.47;6098466;23;20022;-79
2021/12/29 05:38:23;;;;;;;40.63;14.30;;;;;;;-10.13;69.76;100964.91;6072509;23;20027;-78
2021/12/29 05:40:51;;;;;;;47.83;14.90;;;;;;;-10.05;69.93;100970.69;6097069;23;20026;-79
2021/12/29 05:43:17;;;;;;;41.57;14.93;;;;;;;-10.00;70.00;100969.44;6101918;23;20069;-78
2021/12/29 05:45:43;;;;;;;44.70;12.73;;;;;;;-9.82;70.18;100987.00;6099366;23;20041;-77
2021/12/29 05:48:09;;;;;;;36.43;12.80;;;;;;;-9.91;69.46;100979.47;6096416;23;20458;-77
2021/12/29 05:50:35;;;;;;;34.03;12.43;;;;;;;-10.03;69.46;100943.97;6048859;23;20022;-76
2021/12/29 05:53:01;;;;;;;32.97;12.07;;;;;;;-9.91;69.80;100966.88;6098307;23;20456;-79
2021/12/29 05:55:28;;;;;;;36.27;12.27;;;;;;;-9.87;69.50;100973.97;6072203;23;20404;-77
2021/12/29 05:57:56;;;;;;;36.00;11.50;;;;;;;-10.19;68.14;100999.59;6073152;23;20100;-78
2021/12/29 06:00:23;;;;;;;32.97;11.03;;;;;;;-10.60;69.23;100962.28;6077554;23;20062;-77
2021/12/29 06:02:51;;;;;;;41.43;12.07;;;;;;;-10.42;69.70;100976.47;6109578;23;20019;-78
2021/12/29 06:05:19;;;;;;;33.73;12.20;;;;;;;-10.62;68.10;100963.78;6108321;23;20306;-79
2021/12/29 06:07:46;;;;;;;37.33;11.77;;;;;;;-10.54;69.79;100997.19;6099132;23;20404;-80
2021/12/29 06:10:12;;;;;;;34.27;11.47;;;;;;;-10.37;69.46;101013.00;6100458;23;20075;-78
2021/12/29 06:12:44;;;;;;;37.20;12.20;;;;;;;-10.29;70.27;100970.19;6077660;23;20018;-77
2021/12/29 06:15:10;;;;;;;40.97;12.88;;;;;;;-9.84;70.61;100983.47;6104283;23;20531;-79
2021/12/29 06:17:36;;;;;;;30.13;10.30;;;;;;;-9.56;70.57;100998.56;6103809;23;20022;-77
2021/12/29 06:20:08;;;;;;;46.77;15.13;;;;;;;-9.38;69.22;100994.31;6105359;23;20014;-77
2021/12/29 06:22:34;;;;;;;;;;;;;;;-9.62;68.36;101003.06;6106923;23;20018;-78
2021/12/29 06:25:03;;;;;;;44.67;12.90;;;;;;;-9.99;68.97;100990.50;6109200;23;20380;-76
2021/12/29 06:27:31;;;;;;;44.40;14.33;;;;;;;-10.15;68.33;101003.28;6059687;23;20026;-78
2021/12/29 06:29:57;;;;;;;44.87;13.57;;;;;;;-10.38;69.74;100958.41;6107163;23;20037;-77
2021/12/29 06:32:23;;;;;;;46.67;13.20;;;;;;;-9.92;70.57;100977.69;6076567;23;20508;-77
2021/12/29 06:34:49;;;;;;;40.80;14.80;;;;;;;-10.34;68.28;100957.88;6117107;23;20034;-77
2021/12/29 06:37:15;;;;;;;56.07;17.33;;;;;;;-10.17;68.62;101005.69;6109197;23;20101;-77
2021/12/29 06:39:43;;;;;;;55.53;15.73;;;;;;;-10.34;68.42;100993.13;6077251;23;20015;-79
2021/12/29 06:42:10;;;;;;;54.07;14.97;;;;;;;-10.75;69.19;100955.81;6101408;23;20026;-80
2021/12/29 06:44:37;;;;;;;48.73;16.40;;;;;;;-10.56;68.76;100997.81;6077514;23;20037;-81
2021/12/29 06:47:03;;;;;;;47.93;16.33;;;;;;;-10.57;69.19;101003.59;6103183;23;20089;-78
2021/12/29 06:49:29;;;;;;;60.13;16.60;;;;;;;-10.54;68.07;101021.50;6103424;23;20082;-79
2021/12/29 06:51:55;;;;;;;47.60;15.47;;;;;;;-10.70;69.01;101009.09;6107159;23;20085;-78
2021/12/29 06:54:21;;;;;;;52.10;15.80;;;;;;;-10.68;69.19;101013.50;6083112;23;20144;-79
2021/12/29 06:56:49;;;;;;;49.90;15.90;;;;;;;-10.76;68.84;101006.88;6106754;23;20033;-76
2021/12/29 06:59:15;;;;;;;58.37;17.13;;;;;;;-10.69;70.11;100975.63;6107764;23;20037;-80
2021/12/29 07:01:40;;;;;;;49.80;15.17;;;;;;;-10.22;70.46;101011.91;6078533;23;20044;-76
2021/12/29 07:04:08;;;;;;;50.07;14.53;;;;;;;-9.83;70.58;101007.91;6077630;23;20050;-80
2021/12/29 07:06:35;;;;;;;39.97;13.37;;;;;;;-10.02;69.01;100983.53;6100989;23;20022;-76
2021/12/29 07:09:02;;;;;;;46.00;13.63;;;;;;;-10.29;68.52;100967.66;6079364;23;20015;-78
2021/12/29 07:11:28;;;;;;;44.53;14.87;;;;;;;-10.36;67.63;101000.53;6098165;23;20014;-77
2021/12/29 07:13:59;;;;;;;53.53;14.27;;;;;;;-10.31;68.74;101003.47;6103504;23;20022;-78
2021/12/29 07:16:25;;;;;;;47.17;14.13;;;;;;;-10.43;69.26;100967.13;6104981;23;20033;-79
2021/12/29 07:18:51;;;;;;;48.63;14.17;;;;;;;-10.70;68.52;100944.53;6081533;23;20019;-77
2021/12/29 07:21:17;;;;;;;55.80;15.57;;;;;;;-10.16;69.19;101001.50;6106473;23;20034;-77
2021/12/29 07:23:43;;;;;;;47.87;15.33;;;;;;;-10.19;70.20;100946.72;6106215;23;20101;-80
2021/12/29 07:26:09;;;;;;;51.80;17.50;;;;;;;-9.90;69.78;100965.25;6104122;23;20018;-78
2021/12/29 07:28:35;;;;;;;47.77;15.93;;;;;;;-9.82;68.00;100964.34;6061363;23;20025;-80
2021/12/29 07:31:01;;;;;;;49.23;15.87;;;;;;;-9.58;70.08;100984.94;6113472;23;20046;-79
2021/12/29 07:33:27;;;;;;;51.10;16.97;;;;;;;-9.33;69.68;100993.09;6066428;23;20070;-76
2021/12/29 07:35:53;;;;;;;49.90;15.57;;;;;;;-9.58;68.58;100979.88;6090869;23;20029;-77
2021/12/29 07:38:20;;;;;;;56.80;17.17;;;;;;;-9.85;68.59;100956.50;6093807;23;20022;-79
2021/12/29 07:40:46;;;;;;;51.37;16.87;;;;;;;-9.66;70.14;100966.59;6082234;23;20042;-80
2021/12/29 07:43:14;;;;;;;48.97;16.97;;;;;;;-9.46;68.89;100980.09;6114033;23;20082;-78
2021/12/29 07:45:43;;;;;;;52.27;18.73;;;;;;;-9.54;68.58;100985.38;6063899;23;20042;-76
2021/12/29 07:48:10;;;;;;;47.03;17.00;;;;;;;-9.87;69.57;100895.00;6052601;23;20015;-79
2021/12/29 07:50:39;;;;;;;49.53;18.03;;;;;;;-9.82;69.19;100868.59;6098672;23;20072;-81
2021/12/29 07:53:05;;;;;;;43.30;16.83;;;;;;;-9.61;68.89;100907.41;6076052;23;20030;-77
2021/12/29 07:55:34;;;;;;;45.83;16.10;;;;;;;-9.10;68.63;100972.44;6099679;23;20480;-79
2021/12/29 07:58:00;;;;;;;53.43;16.37;;;;;;;-9.46;69.07;100953.28;6074446;23;20041;-80
2021/12/29 08:00:30;;;;;;;51.37;18.77;;;;;;;-9.49;68.41;100960.56;6077423;23;20072;-79
2021/12/29 08:02:56;;;;;;;49.37;18.50;;;;;;;-9.85;69.16;100913.66;6099307;23;20018;-80
2021/12/29 08:05:25;;;;;;;57.30;18.30;;;;;;;-9.70;67.83;100921.69;6076097;23;20077;-79
2021/12/29 08:08:06;;;;;;;59.53;16.60;;;;;;;-9.41;68.43;100968.81;6102604;23;20096;-79
2021/12/29 08:10:39;;;;;;;56.93;18.23;;;;;;;-9.25;68.42;100973.59;6102912;23;20032;-79
2021/12/29 08:13:07;;;;;;;54.17;16.93;;;;;;;-9.66;67.62;100958.16;6077828;23;20088;-79
2021/12/29 08:15:35;;;;;;;70.53;20.60;;;;;;;-9.63;67.46;100971.91;6102616;23;20029;-77
2021/12/29 08:18:03;;;;;;;59.27;19.13;;;;;;;-9.61;67.47;100964.50;6101600;23;20018;-81
2021/12/29 08:20:36;;;;;;;66.10;19.90;;;;;;;-9.53;66.75;100976.16;6102202;23;20026;-80
2021/12/29 08:23:23;;;;;;;63.57;20.10;;;;;;;-10.58;67.63;100788.78;6101789;23;20096;-79
2021/12/29 08:25:49;;;;;;;58.90;20.37;;;;;;;-9.68;68.26;100916.06;6081434;23;20022;-78
2021/12/29 08:28:22;;;;;;;63.47;19.07;;;;;;;-9.65;67.80;100844.00;6079519;23;20405;-79
2021/12/29 08:30:56;;;;;;;61.93;19.53;;;;;;;-8.71;69.73;100901.69;6105189;23;20479;-80
2021/12/29 08:33:22;;;;;;;63.50;20.67;;;;;;;-7.85;67.64;100927.38;6106388;23;20018;-79
2021/12/29 08:35:48;;;;;;;68.22;20.58;;;;;;;-7.25;69.03;100932.25;6105552;23;20072;-79
2021/12/29 08:38:15;;;;;;;70.80;24.40;;;;;;;-7.99;67.27;100805.81;6080366;23;20018;-80
2021/12/29 08:40:41;;;;;;;73.50;24.55;;;;;;;-7.67;66.06;100903.59;6080362;23;20041;-80
2021/12/29 08:43:07;;;;;;;87.57;26.85;;;;;;;-6.82;67.53;100923.00;6107780;23;20106;-78
2021/12/29 08:45:37;;;;;;;74.88;23.38;;;;;;;-7.29;64.79;100903.28;6111848;23;20018;-79
2021/12/29 08:48:25;;;;;;;89.63;25.65;;;;;;;-6.97;66.69;100884.75;6105560;23;20468;-78
2021/12/29 08:50:50;;;;;;;75.18;23.95;;;;;;;-6.16;65.71;100901.03;6108633;23;20025;-78
2021/12/29 08:53:21;;;;;;;80.00;25.45;;;;;;;-5.99;66.72;100817.72;6095117;23;20032;-78
2021/12/29 08:55:50;;;;;;;71.93;21.88;;;;;;;-7.00;63.94;100693.78;6120934;23;20002;-79
2021/12/29 08:58:18;;;;;;;74.93;22.30;;;;;;;-6.00;65.13;100905.63;6086712;23;20018;-78
2021/12/29 09:00:44;;;;;;;69.63;23.92;;;;;;;-6.49;65.13;100905.25;6080968;23;20024;-77
2021/12/29 09:03:11;;;;;;;74.85;23.73;;;;;;;-6.93;66.34;100849.53;6103627;23;20073;-79
2021/12/29 09:05:37;;;;;;;81.95;23.52;;;;;;;-7.44;64.97;100832.13;6101823;23;20015;-79
2021/12/29 09:08:04;;;;;;;76.15;23.17;;;;;;;-6.99;66.02;100914.09;6105186;23;20056;-78
2021/12/29 09:10:36;;;;;;;71.05;24.08;;;;;;;-7.65;65.45;100879.34;6105779;23;20018;-80
2021/12/29 09:13:04;;;;;;;78.60;24.08;;;;;;;-8.32;63.88;100850.28;6078703;23;20508;-80
2021/12/29 09:15:34;;;;;;;85.28;24.38;;;;;;;-8.32;65.39;100875.53;6082874;23;20026;-78
2021/12/29 09:18:00;;;;;;;76.80;22.17;;;;;;;-7.82;66.72;100889.69;6109057;23;20018;-78
2021/12/29 09:20:30;;;;;;;72.13;24.25;;;;;;;-7.32;66.70;100885.34;6105978;23;20495;-78
2021/12/29 09:23:00;;;;;;;77.40;23.73;;;;;;;-6.74;65.92;100885.66;6106450;23;20109;-80
2021/12/29 09:25:26;;;;;;;74.57;23.02;;;;;;;-6.71;65.95;100827.63;6105071;23;20085;-80
2021/12/29 09:27:56;;;;;;;64.30;21.48;;;;;;;-5.98;66.73;100883.78;6109998;23;20050;-78
2021/12/29 09:30:24;;;;;;;63.10;22.23;;;;;;;-5.88;66.31;100865.06;6109834;23;20022;-78
2021/12/29 09:32:51;;;;;;;63.90;20.45;;;;;;;-5.85;66.31;100852.59;6084108;23;20070;-78
2021/12/29 09:35:17;;;;;;;79.00;21.65;;;;;;;-5.72;66.54;100867.03;6059226;23;20029;-79
2021/12/29 09:37:43;;;;;;;65.43;20.88;;;;;;;-5.73;64.58;100849.19;6107323;23;20038;-79
2021/12/29 09:40:13;;;;;;;69.18;22.60;;;;;;;-5.39;65.67;100874.47;6064898;23;20026;-78
2021/12/29 09:42:39;;;;;;;65.22;22.27;;;;;;;-5.07;66.01;100875.91;6070049;23;20050;-78
2021/12/29 09:45:07;;;;;;;66.43;22.55;;;;;;;-5.01;64.71;100841.69;6049633;23;20051;-77
2021/12/29 09:47:38;;;;;;;64.28;23.05;;;;;;;-4.60;64.57;100855.50;6048115;23;20058;-78
2021/12/29 09:50:09;;;;;;;70.82;23.23;;;;;;;-4.43;63.05;100861.75;6045787;23;20035;-77
2021/12/29 09:52:35;;;;;;;70.93;23.40;;;;;;;-4.36;62.54;100857.97;6048189;23;20314;-78
2021/12/29 09:55:09;;;;;;;60.67;22.42;;;;;;;-4.56;64.40;100793.06;6071732;23;20110;-79
2021/12/29 09:57:37;;;;;;;62.05;21.73;;;;;;;-4.04;64.14;100810.06;6051124;23;20023;-77
2021/12/29 10:00:18;;;;;;;66.45;22.30;;;;;;;-3.95;63.93;100820.84;6053508;23;20019;-77
2021/12/29 10:02:47;;;;;;;57.75;20.70;;;;;;;-4.56;59.80;100824.47;6081256;23;20033;-78
2021/12/29 10:05:14;;;;;;;63.33;20.73;;;;;;;-4.36;63.65;100829.13;6048822;23;20019;-80
2021/12/29 10:08:13;;;;;;;55.00;20.25;;;;;;;-3.76;63.62;100817.84;6073393;23;20023;-79
2021/12/29 10:10:45;;;;;;;58.95;20.17;;;;;;;-2.76;63.63;100807.09;6073016;23;20047;-79
2021/12/29 10:13:11;;;;;;;54.67;19.45;;;;;;;-3.33;59.78;100779.88;6050412;23;20026;-76
2021/12/29 10:15:46;;;;;;;49.15;19.27;;;;;;;-4.78;60.53;100789.06;6051858;23;20046;-78
2021/12/29 10:18:19;;;;;;;54.38;19.98;;;;;;;-6.19;58.47;100790.97;6076581;23;20019;-79
2021/12/29 10:20:49;;;;;;;60.53;21.05;;;;;;;-7.23;59.09;100805.88;6054877;23;20027;-78
2021/12/29 10:23:22;;;;;;;65.00;21.50;;;;;;;-7.29;62.34;100806.31;6049053;23;20393;-77
2021/12/29 10:25:49;;;;;;;55.90;19.60;;;;;;;-6.91;62.18;100830.28;6050146;23;20019;-76
2021/12/29 10:28:29;;;;;;;54.35;20.17;;;;;;;-6.86;62.29;100829.00;6049795;23;20019;-79
2021/12/29 10:31:04;;;;;;;68.45;21.63;;;;;;;-7.57;60.28;100827.72;6040394;23;20019;-80
2021/12/29 10:33:37;;;;;;;71.00;21.45;;;;;;;-7.86;62.18;100827.91;6065151;23;20106;-77
2021/12/29 10:36:13;;;;;;;60.10;19.25;;;;;;;-8.85;61.09;100765.16;6040967;23;20130;-80
2021/12/29 10:38:47;;;;;;;64.05;20.20;;;;;;;-8.98;60.34;100825.44;6069210;23;20474;-80
2021/12/29 10:41:13;;;;;;;59.67;18.85;;;;;;;-9.17;62.70;100798.63;6061355;23;20023;-81
2021/12/29 10:43:50;;;;;;;68.83;22.07;;;;;;;-9.12;62.54;100804.06;6045307;23;20019;-79
2021/12/29 10:46:21;;;;;;;61.57;21.10;;;;;;;-9.36;62.34;100806.22;6068648;23;20096;-80
2021/12/29 10:48:49;;;;;;;60.27;20.07;;;;;;;-9.05;64.13;100823.13;6067953;23;20025;-79
2021/12/29 10:51:16;;;;;;;57.17;20.03;;;;;;;-9.01;62.72;100798.28;6065365;23;20030;-78
2021/12/29 10:53:43;;;;;;;54.00;19.20;;;;;;;-9.55;61.67;100770.97;6067289;23;20026;-79
2021/12/29 10:56:23;;;;;;;66.40;21.30;;;;;;;-9.68;62.47;100806.81;6067905;23;20019;-78
2021/12/29 10:58:54;;;;;;;68.13;22.00;;;;;;;-9.68;62.74;100800.16;6047358;23;20433;-79
2021/12/29 11:01:21;;;;;;;64.30;22.33;;;;;;;-9.42;64.49;100796.50;6049969;23;20136;-79
2021/12/29 11:03:50;;;;;;;62.63;21.83;;;;;;;-9.36;64.40;100796.16;6044394;23;20424;-79
2021/12/29 11:06:19;;;;;;;61.27;21.13;;;;;;;-9.26;63.45;100800.34;6069687;23;20030;-77
2021/12/29 11:08:54;;;;;;;63.37;21.07;;;;;;;-9.56;63.12;100800.34;6079787;23;20023;-79
2021/12/29 11:11:33;;;;;;;59.00;20.43;;;;;;;-9.88;63.17;100774.84;6075112;23;20023;-79
2021/12/29 11:14:14;;;;;;;69.27;21.07;;;;;;;-10.15;62.42;100759.91;6040976;23;20019;-80
2021/12/29 11:16:43;;;;;;;57.10;17.87;;;;;;;-10.43;62.39;100786.78;6040984;23;20322;-80
2021/12/29 11:19:12;;;;;;;62.90;19.97;;;;;;;-10.39;64.24;100772.88;6040705;23;20067;-80
2021/12/29 11:21:41;;;;;;;64.93;20.50;;;;;;;-10.39;63.28;100778.78;6044762;23;20023;-79
2021/12/29 11:24:24;;;;;;;56.43;19.57;;;;;;;-10.46;63.80;100784.00;6041449;23;20030;-77